Flight Track Log - Related Links

Times and Time Zones

All times are in EDT time to prevent confusion due to time zone crossing. See the UAL481 flight status page for this flight to view local times or setup timezone preferences in your user account.

Time Position Orientation Groundspeed Altitude Reporting Facility
EDT Latitude Longitude Course Direction KTS MPH feet Rate Location/Type
Mon 05:57:51 PM 42.7214 -73.8164 220° Southwest 155 178 1,400  Level Boston Center
Mon 05:58:23 PM 42.7044 -73.8358 220° Southwest 179 206 2,000 2,044 Climbing Boston Center
Mon 05:59:22 PM 42.6867 -73.9172 253° West 245 282 4,500 2,845 Climbing Boston Center
Mon 06:00:19 PM 42.6817 -73.9961 265° West 256 295 7,500 3,282 Climbing Boston Center
Mon 06:01:19 PM 42.6864 -74.0953 274° West 259 298 10,900 2,650 Climbing Boston Center
Mon 06:02:19 PM 42.7014 -74.2003 281° West 270 311 12,800 2,250 Climbing Boston Center
Mon 06:03:19 PM 42.7353 -74.3114 293° West 295 339 15,400 2,500 Climbing Boston Center
Mon 06:04:19 PM 42.7622 -74.4281 287° West 322 371 17,800 2,400 Climbing Boston Center
Mon 06:05:19 PM 42.7872 -74.5536 285° West 335 386 20,200 2,200 Climbing Boston Center
Mon 06:06:19 PM 42.8139 -74.6761 287° West 341 392 22,200 2,300 Climbing Boston Center
Mon 06:07:19 PM 42.8428 -74.7989 288° West 341 392 24,800 2,150 Climbing Boston Center
Mon 06:08:19 PM 42.8736 -74.9219 289° West 341 392 26,500 1,136 Climbing Boston Center
Mon 06:09:31 PM 42.9000 -75.0478 286° West 341 392 27,300 636 Climbing Boston Center
Mon 06:10:31 PM 42.9358 -75.2081 287° West 357 411 27,900 300 Climbing Boston Center
Mon 06:11:31 PM 42.9697 -75.3458 289° West 370 426 27,900  Level Boston Center
Mon 06:12:31 PM 43.0017 -75.4867 287° West 380 437 27,900  Level Boston Center
Mon 06:13:31 PM 43.0314 -75.6186 287° West 380 437 27,900  Level Boston Center
Mon 06:14:31 PM 43.0608 -75.7567 286° West 385 443 27,900  Level Boston Center
Mon 06:15:31 PM 43.0922 -75.8919 288° West 385 443 27,900  Level Boston Center
Mon 06:16:31 PM 43.1197 -76.0158 287° West 380 437 27,900  Level Boston Center
Mon 06:18:11 PM 43.1592 -76.2625 282° West 377 434 27,900  Level Cleveland Center
Mon 06:19:11 PM 43.1622 -76.4075 272° West 377 434 27,900  Level Cleveland Center
Mon 06:20:11 PM 43.1589 -76.5500 268° West 372 428 27,900  Level Cleveland Center
Mon 06:21:11 PM 43.1597 -76.6922 271° West 377 434 27,900 50 Level Cleveland Center
Mon 06:22:11 PM 43.1597 -76.8147 270° West 377 434 28,000 50 Climbing Cleveland Center
Mon 06:23:11 PM 43.1581 -76.9600 269° West 377 434 28,000  Level Cleveland Center
Mon 06:24:11 PM 43.1581 -77.1022 270° West 377 434 28,000 550 Level Cleveland Center
Mon 06:25:11 PM 43.1581 -77.2419 270° West 377 434 29,100 1,000 Climbing Cleveland Center
Mon 06:26:11 PM 43.1558 -77.3814 269° West 377 434 30,000 450 Climbing Cleveland Center
Mon 06:27:11 PM 43.1536 -77.5297 269° West 382 440 30,000  Level Cleveland Center
Mon 06:28:11 PM 43.1511 -77.6747 269° West 382 440 30,000  Level Cleveland Center
Mon 06:29:11 PM 43.1506 -77.8256 270° West 387 445 30,000  Level Cleveland Center
Mon 06:30:11 PM 43.1497 -77.9739 270° West 387 445 30,000 -50 Level Cleveland Center
Mon 06:31:11 PM 43.1467 -78.1189 268° West 387 445 29,900 -50 Descending Cleveland Center
Mon 06:32:11 PM 43.1436 -78.2642 268° West 387 445 29,900 50 Level Cleveland Center
Mon 06:33:11 PM 43.1400 -78.4094 268° West 387 445 30,000  Climbing Cleveland Center
Mon 06:34:11 PM 43.1386 -78.5547 269° West 387 445 29,900 -50 Descending Cleveland Center
Mon 06:35:11 PM 43.1325 -78.6972 267° West 387 445 29,900  Level Cleveland Center
Mon 06:36:11 PM 43.1306 -78.8394 269° West 387 445 29,900 47 Level Cleveland Center
Mon 06:37:19 PM 43.1167 -79.0000 263° West 380 437 30,000 47 Climbing Toronto Center
Mon 06:38:19 PM 43.1167 -79.1333 270° West 380 437 30,000  Level Toronto Center
Mon 06:39:19 PM 43.1000 -79.2833 261° West 380 437 30,000  Level Toronto Center
Mon 06:40:19 PM 43.1000 -79.4333 270° West 380 437 30,000  Level Toronto Center
Mon 06:41:19 PM 43.1000 -79.5667 270° West 380 437 30,000  Level Toronto Center
Mon 06:42:19 PM 43.0833 -79.7000 260° West 380 437 30,000  Level Toronto Center
Mon 06:43:19 PM 43.0833 -79.8333 270° West 380 437 30,000  Level Toronto Center
Mon 06:44:19 PM 43.0833 -80.0000 270° West 380 437 30,000  Level Toronto Center
Mon 06:45:19 PM 43.0667 -80.1333 260° West 380 437 30,000  Level Toronto Center
Mon 06:46:19 PM 43.0667 -80.3000 270° West 380 437 30,000  Level Toronto Center
Mon 06:47:19 PM 43.0667 -80.4333 270° West 380 437 30,000  Level Toronto Center
Mon 06:48:19 PM 43.0500 -80.5667 260° West 380 437 30,000  Level Toronto Center
Mon 06:49:19 PM 43.0500 -80.7000 270° West 380 437 30,000  Level Toronto Center
Mon 06:50:19 PM 43.0333 -80.8500 261° West 380 437 30,000  Level Toronto Center
Mon 06:51:19 PM 43.0167 -81.0000 261° West 380 437 30,000  Level Toronto Center
Mon 06:52:19 PM 43.0167 -81.1333 270° West 380 437 30,000  Level Toronto Center
Mon 06:53:19 PM 43.0167 -81.2667 270° West 380 437 30,000  Level Toronto Center
Mon 06:54:19 PM 43.0167 -81.4333 270° West 380 437 30,000  Level Toronto Center
Mon 06:55:19 PM 43.0167 -81.5667 270° West 380 437 30,000  Level Toronto Center
Mon 06:56:19 PM 43.0000 -81.7000 260° West 360 414 30,000  Level Toronto Center
Mon 06:57:19 PM 42.9833 -81.8500 261° West 340 391 30,000  Level Toronto Center
Mon 06:58:19 PM 42.9667 -81.9500 257° West 340 391 30,000  Level Toronto Center
Mon 06:59:19 PM 42.9500 -82.1000 261° West 350 403 30,000  Level Toronto Center
Mon 07:00:19 PM 42.9500 -82.2333 270° West 350 403 30,000  Level Toronto Center
Mon 07:01:19 PM 42.9333 -82.3667 260° West 350 403 30,000 -50 Level Toronto Center
Mon 07:02:19 PM 42.9167 -82.4833 259° West 340 391 29,900 -50 Descending Toronto Center
Mon 07:03:19 PM 42.9167 -82.6167 270° West 340 391 29,900  Level Toronto Center
Mon 07:03:35 PM 42.9128 -82.6469 260° West 351 404 29,900 79 Level Cleveland Center
Mon 07:04:35 PM 42.9000 -82.7656 262° West 344 396 30,000 50 Climbing Cleveland Center
Mon 07:05:35 PM 42.8897 -82.8758 263° West 324 373 30,000  Level Cleveland Center
Mon 07:06:35 PM 42.8792 -82.9858 263° West 309 356 30,000  Level Cleveland Center
Mon 07:07:35 PM 42.8725 -83.0961 265° West 303 349 30,000 -50 Level Cleveland Center
Mon 07:08:35 PM 42.8678 -83.2119 267° West 303 349 29,900 -50 Descending Cleveland Center
Mon 07:09:35 PM 42.8633 -83.3167 267° West 297 342 29,900 50 Level Cleveland Center
Mon 07:10:35 PM 42.8647 -83.4300 271° West 290 334 30,000 50 Climbing Cleveland Center
Mon 07:11:35 PM 42.8681 -83.5519 272° West 301 346 30,000  Level Cleveland Center
Mon 07:12:35 PM 42.8686 -83.6881 270° West 330 380 30,000  Level Cleveland Center
Mon 07:13:35 PM 42.8711 -83.8214 272° West 351 404 30,000  Level Cleveland Center
Mon 07:14:35 PM 42.8731 -83.9689 271° West 356 410 30,000 -50 Level Cleveland Center
Mon 07:15:35 PM 42.8758 -84.0881 272° West 356 410 29,900 -65 Descending Cleveland Center
Mon 07:16:07 PM 42.8781 -84.1714 272° West 352 405 29,900 64 Level Chicago Center
Mon 07:17:09 PM 42.8811 -84.3053 272° West 354 407 30,000 48 Climbing Chicago Center
Mon 07:18:11 PM 42.8828 -84.4403 271° West 358 412 30,000  Level Chicago Center
Mon 07:19:13 PM 42.8842 -84.5767 271° West 361 415 30,000  Level Chicago Center
Mon 07:20:15 PM 42.8711 -84.7136 263° West 366 421 30,000  Level Chicago Center
Mon 07:21:17 PM 42.8575 -84.8483 262° West 362 417 30,000  Level Chicago Center
Mon 07:22:19 PM 42.8494 -85.0094 266° West 371 427 30,000  Level Chicago Center
Mon 07:23:21 PM 42.8656 -85.1431 279° West 364 419 30,000  Level Chicago Center
Mon 07:24:23 PM 42.8844 -85.2775 281° West 361 415 30,000 -435 Level Chicago Center
Mon 07:25:25 PM 42.9022 -85.4142 280° West 365 420 29,100 -1,008 Descending Chicago Center
Mon 07:26:28 PM 42.9214 -85.5600 280° West 383 441 27,900 -1,104 Descending Chicago Center
Mon 07:27:30 PM 42.9403 -85.7058 280° West 390 449 26,800 -1,113 Descending Chicago Center
Mon 07:28:32 PM 42.9617 -85.8728 280° West 376 433 25,600 -1,065 Descending Chicago Center
Mon 07:29:34 PM 42.9786 -86.0131 279° West 365 420 24,600 -968 Descending Chicago Center
Mon 07:30:36 PM 42.9975 -86.1506 281° West 358 412 23,600 -968 Descending Chicago Center
Mon 07:31:38 PM 43.0144 -86.2858 280° West 359 413 22,600 -968 Descending Chicago Center
Mon 07:32:40 PM 43.0306 -86.4194 279° West 356 410 21,600 -968 Descending Chicago Center
Mon 07:33:42 PM 43.0472 -86.5528 280° West 357 411 20,600 -968 Descending Chicago Center
Mon 07:34:44 PM 43.0631 -86.6822 280° West 349 402 19,600 -960 Descending Chicago Center
Mon 07:35:47 PM 43.0783 -86.8094 279° West 342 394 18,600 -1,056 Descending Chicago Center
Mon 07:36:49 PM 43.0969 -86.9628 279° West 341 392 17,400 -1,065 Descending Chicago Center
Mon 07:37:51 PM 43.1117 -87.0900 279° West 340 391 16,400 -968 Descending Chicago Center
Mon 07:38:53 PM 43.1264 -87.2167 279° West 338 389 15,400 -1,161 Descending Chicago Center
Mon 07:39:55 PM 43.1222 -87.3383 267° West 334 384 14,000 -1,452 Descending Chicago Center
Mon 07:40:57 PM 43.0456 -87.4325 222° Southwest 344 396 12,400 -1,500 Descending Chicago Center
Mon 07:41:59 PM 42.9744 -87.5200 222° Southwest 344 396 10,900 -871 Descending Chicago Center
Mon 07:43:01 PM 42.9097 -87.5964 221° Southwest 319 367 10,600 -968 Descending Chicago Center
Mon 07:44:03 PM 42.8128 -87.5911 178° South 302 348 8,900 -1,548 Descending Chicago Center
Mon 07:45:05 PM 42.7311 -87.5756 172° South 297 342 7,400 -919 Descending Chicago Center
Mon 07:46:07 PM 42.6500 -87.5631 174° South 294 338 7,000 -240 Descending Chicago Center
Mon 07:47:10 PM 42.5686 -87.5517 174° South 294 338 6,900 -48 Descending Chicago Center
Mon 07:48:12 PM 42.4878 -87.5411 174° South 292 336 6,900 -48 Level Chicago Center
Mon 07:49:14 PM 42.4086 -87.5331 176° South 286 329 6,800 -484 Descending Chicago Center
Mon 07:50:16 PM 42.3172 -87.5206 174° South 283 326 5,900 -435 Descending Chicago Center
Mon 07:51:18 PM 42.2472 -87.5108 174° South 283 326 5,900 -387 Level Chicago Center
Mon 07:52:20 PM 42.1536 -87.5036 177° South 281 323 5,100 -871 Descending Chicago Center
Mon 07:53:22 PM 42.0808 -87.5314 196° South 272 313 4,100 -581 Descending Chicago Center
Mon 07:54:24 PM 42.0303 -87.5833 217° Southwest 260 299 3,900 -194 Descending Chicago Center

Login

Don't have an account? Register now (free) for customized features, flight alerts, and more!